Time;durP1;ratioP1;P1;durP2;ratioP2;P2;SDS_P1;SDS_P2;PMS_P1;PMS_P2;Temp;Humidity;BMP_temperature;BMP_pressure;BME280_temperature;BME280_humidity;BME280_pressure;Samples;Min_cycle;Max_cycle;Signal;HPM_P1;HPM_P2
2023/09/09 00:01:09;;;;;;;6.23;5.00;;;;;;;18.33;75.11;100914.22;5040722;28;20216;-78
2023/09/09 00:03:35;;;;;;;5.13;4.63;;;;;;;18.25;75.07;100917.66;5049509;28;20705;-78
2023/09/09 00:06:08;;;;;;;8.20;5.33;;;;;;;18.19;75.37;100920.88;5044145;28;20277;-80
2023/09/09 00:08:34;;;;;;;5.83;5.10;;;;;;;18.17;75.65;100922.00;5045650;28;20689;-78
2023/09/09 00:11:01;;;;;;;6.30;5.20;;;;;;;18.13;75.89;100920.59;5046812;28;20686;-79
2023/09/09 00:13:29;;;;;;;5.90;5.40;;;;;;;18.11;76.01;100922.56;5044642;28;20219;-79
2023/09/09 00:15:57;;;;;;;6.27;5.43;;;;;;;18.09;76.20;100921.88;5044991;28;20204;-79
2023/09/09 00:18:23;;;;;;;7.20;5.57;;;;;;;18.04;76.27;100928.53;5040825;28;20582;-78
2023/09/09 00:20:50;;;;;;;5.53;5.03;;;;;;;17.99;76.19;100927.22;5046843;28;20219;-77
2023/09/09 00:23:16;;;;;;;5.90;5.30;;;;;;;17.94;76.33;100922.25;5045049;28;20236;-77
2023/09/09 00:25:43;;;;;;;6.03;5.43;;;;;;;17.89;76.45;100920.97;5051622;28;20215;-78
2023/09/09 00:28:11;;;;;;;6.33;5.30;;;;;;;17.86;76.56;100924.78;5051392;28;20228;-78
2023/09/09 00:30:39;;;;;;;6.33;5.40;;;;;;;17.80;76.69;100919.09;5045780;28;20212;-79
2023/09/09 00:33:07;;;;;;;7.23;5.40;;;;;;;17.75;76.64;100919.50;5046985;28;20244;-82
2023/09/09 00:35:33;;;;;;;6.27;5.27;;;;;;;17.71;77.28;100915.38;5048825;28;20208;-78
2023/09/09 00:38:00;;;;;;;7.40;5.87;;;;;;;17.72;78.46;100913.53;5053683;28;20714;-79
2023/09/09 00:40:27;;;;;;;10.80;5.87;;;;;;;17.71;79.34;100917.22;5043101;28;20210;-79
2023/09/09 00:42:53;;;;;;;6.50;5.90;;;;;;;17.68;80.26;100912.97;5050195;28;20239;-78
2023/09/09 00:45:20;;;;;;;6.70;6.10;;;;;;;17.63;80.66;100912.47;5046259;28;20207;-78
2023/09/09 00:47:48;;;;;;;6.80;6.10;;;;;;;17.60;81.11;100920.81;5051992;28;20209;-81
2023/09/09 00:50:14;;;;;;;7.10;5.90;;;;;;;17.56;81.38;100911.31;5052422;28;20212;-79
2023/09/09 00:52:42;;;;;;;6.27;5.67;;;;;;;17.54;81.66;100910.59;5048133;28;20231;-80
2023/09/09 00:55:11;;;;;;;7.33;6.20;;;;;;;17.54;81.89;100899.84;5053680;28;20217;-80
2023/09/09 00:57:38;;;;;;;8.03;6.73;;;;;;;17.49;82.28;100910.16;5051373;28;20206;-77
2023/09/09 01:00:09;;;;;;;6.67;5.07;;;;;;;17.45;82.14;100911.41;5051060;28;20212;-78
2023/09/09 01:02:36;;;;;;;8.03;6.13;;;;;;;17.43;82.30;100908.00;5045800;28;20275;-79
2023/09/09 01:05:05;;;;;;;6.57;5.97;;;;;;;17.40;82.31;100909.09;5052128;28;20227;-78
2023/09/09 01:07:42;;;;;;;8.57;5.50;;;;;;;17.36;81.76;100907.69;5046012;28;20265;-81
2023/09/09 01:10:09;;;;;;;6.23;5.63;;;;;;;17.31;81.41;100904.53;5050953;28;20276;-77
2023/09/09 01:12:35;;;;;;;7.03;6.00;;;;;;;17.28;81.72;100907.50;5051419;28;20223;-79
2023/09/09 01:15:02;;;;;;;6.57;5.87;;;;;;;17.24;82.12;100901.53;5047489;28;20213;-77
2023/09/09 01:17:29;;;;;;;6.47;5.40;;;;;;;17.22;82.23;100903.50;5050632;28;20231;-78
2023/09/09 01:19:58;;;;;;;6.80;5.67;;;;;;;17.22;82.33;100906.19;5045788;28;20231;-77
2023/09/09 01:22:33;;;;;;;5.70;5.20;;;;;;;17.21;82.53;100907.16;5051098;28;20973;-77
2023/09/09 01:25:00;;;;;;;6.97;5.97;;;;;;;17.18;82.41;100904.78;5046277;28;20226;-77
2023/09/09 01:27:26;;;;;;;7.20;5.63;;;;;;;17.18;82.51;100909.31;5045838;28;20211;-78
2023/09/09 01:29:53;;;;;;;7.30;5.67;;;;;;;17.17;82.76;100910.28;5044576;28;20204;-81
2023/09/09 01:32:19;;;;;;;6.13;5.60;;;;;;;17.14;82.67;100911.41;5046112;28;20233;-78
2023/09/09 01:34:45;;;;;;;7.10;6.40;;;;;;;17.13;82.70;100909.69;5047675;28;20203;-80
2023/09/09 01:37:12;;;;;;;7.43;5.47;;;;;;;17.12;82.85;100910.69;5040005;28;20201;-79
2023/09/09 01:39:43;;;;;;;7.90;5.77;;;;;;;17.11;82.70;100908.97;5049913;28;20258;-77
2023/09/09 01:42:09;;;;;;;6.57;5.90;;;;;;;17.07;82.44;100906.66;5050381;28;20395;-80
2023/09/09 01:44:35;;;;;;;6.53;5.70;;;;;;;17.04;82.50;100898.84;5048906;28;20227;-79
2023/09/09 01:47:02;;;;;;;6.57;5.53;;;;;;;17.00;81.93;100903.66;5049035;28;20211;-78
2023/09/09 01:49:28;;;;;;;5.73;5.10;;;;;;;16.91;81.57;100905.31;5049803;28;20707;-77
2023/09/09 01:51:55;;;;;;;6.77;6.07;;;;;;;16.84;81.48;100905.97;5050870;28;20222;-80
2023/09/09 01:54:21;;;;;;;5.77;5.17;;;;;;;16.79;81.18;100902.81;5051079;28;20203;-79
2023/09/09 01:56:49;;;;;;;6.30;5.80;;;;;;;16.71;80.83;100900.75;5046655;28;20205;-80
2023/09/09 01:59:16;;;;;;;7.97;5.67;;;;;;;16.64;81.08;100897.75;5046588;28;20206;-77
2023/09/09 02:01:42;;;;;;;5.40;5.00;;;;;;;16.58;81.19;100905.44;5043118;28;20209;-79
2023/09/09 02:04:09;;;;;;;6.80;5.40;;;;;;;16.53;81.90;100911.22;5049024;28;20231;-81
2023/09/09 02:06:35;;;;;;;8.13;6.07;;;;;;;16.48;81.71;100910.72;5048679;28;20206;-77
2023/09/09 02:09:03;;;;;;;6.40;5.80;;;;;;;16.45;82.36;100916.41;5044570;28;20227;-77
2023/09/09 02:11:29;;;;;;;6.80;6.10;;;;;;;16.42;82.68;100913.09;5047656;28;20217;-77
2023/09/09 02:13:57;;;;;;;7.70;5.87;;;;;;;16.40;83.30;100907.00;5045761;28;20653;-78
2023/09/09 02:16:24;;;;;;;9.17;6.47;;;;;;;16.37;83.62;100905.41;5045662;28;20214;-79
2023/09/09 02:18:50;;;;;;;8.27;6.37;;;;;;;16.38;83.82;100908.97;5045897;28;20742;-79
2023/09/09 02:21:17;;;;;;;6.83;6.23;;;;;;;16.36;84.04;100911.78;5047337;28;20850;-80
2023/09/09 02:23:44;;;;;;;7.73;6.43;;;;;;;16.35;84.27;100915.44;5044221;28;20632;-80
2023/09/09 02:26:10;;;;;;;7.57;6.77;;;;;;;16.34;84.45;100908.34;5048424;28;20221;-79
2023/09/09 02:28:37;;;;;;;7.00;6.40;;;;;;;16.33;84.78;100912.03;5046486;28;20208;-79
2023/09/09 02:31:05;;;;;;;6.63;6.00;;;;;;;16.32;84.80;100908.47;5043771;28;20307;-80
2023/09/09 02:33:31;;;;;;;6.90;6.20;;;;;;;16.31;84.69;100905.91;5046276;28;20231;-79
2023/09/09 02:35:59;;;;;;;6.93;6.00;;;;;;;16.26;84.00;100903.63;5046338;28;20204;-80
2023/09/09 02:38:26;;;;;;;5.77;5.27;;;;;;;16.21;83.52;100907.66;5051283;28;20207;-78
2023/09/09 02:40:53;;;;;;;6.97;5.73;;;;;;;16.14;83.08;100901.09;5045833;28;20575;-79
2023/09/09 02:43:19;;;;;;;5.90;5.40;;;;;;;16.07;83.22;100905.28;5049850;28;20326;-78
2023/09/09 02:45:46;;;;;;;7.40;5.83;;;;;;;16.03;83.79;100898.44;5046387;28;20230;-78
2023/09/09 02:48:13;;;;;;;6.87;6.17;;;;;;;15.98;83.90;100896.97;5048523;28;20207;-80
2023/09/09 02:50:40;;;;;;;7.07;5.53;;;;;;;15.92;84.64;100894.81;5052178;28;20198;-78
2023/09/09 02:53:06;;;;;;;6.60;5.50;;;;;;;15.87;84.57;100888.97;5052336;28;20805;-77
2023/09/09 02:55:33;;;;;;;6.57;5.97;;;;;;;15.82;84.31;100892.97;5042963;28;20234;-79
2023/09/09 02:57:59;;;;;;;6.87;6.17;;;;;;;15.75;83.94;100900.72;5043782;28;20215;-77
2023/09/09 03:00:26;;;;;;;8.50;5.80;;;;;;;15.72;84.73;100898.25;5048391;28;20209;-77
2023/09/09 03:02:52;;;;;;;7.43;6.10;;;;;;;15.69;84.30;100897.66;5039193;28;20237;-79
2023/09/09 03:05:20;;;;;;;8.37;6.30;;;;;;;15.66;84.69;100889.84;5041794;28;20226;-77
2023/09/09 03:07:48;;;;;;;7.17;6.23;;;;;;;15.61;85.29;100892.88;5046247;28;20228;-79
2023/09/09 03:10:14;;;;;;;6.07;5.47;;;;;;;15.56;85.37;100895.09;5050127;28;20207;-78
2023/09/09 03:12:41;;;;;;;6.47;5.43;;;;;;;15.55;85.71;100894.25;5049911;28;20224;-78
2023/09/09 03:15:09;;;;;;;7.77;6.70;;;;;;;15.52;86.30;100899.84;5044059;28;20206;-81
2023/09/09 03:17:35;;;;;;;7.07;6.20;;;;;;;15.53;86.33;100895.31;5049368;28;20206;-79
2023/09/09 03:20:05;;;;;;;7.40;6.37;;;;;;;15.51;86.83;100895.44;5051266;28;20210;-79
2023/09/09 03:22:33;;;;;;;7.03;6.33;;;;;;;15.50;87.03;100893.72;5045589;28;20223;-79
2023/09/09 03:24:59;;;;;;;6.03;5.53;;;;;;;15.50;87.45;100891.03;5049753;28;20226;-79
2023/09/09 03:27:25;;;;;;;7.43;6.73;;;;;;;15.49;87.32;100888.47;5050974;28;20592;-79
2023/09/09 03:29:52;;;;;;;6.37;5.77;;;;;;;15.48;87.77;100892.13;5049922;28;20205;-77
2023/09/09 03:32:18;;;;;;;8.40;5.97;;;;;;;15.47;88.10;100885.91;5047688;28;20233;-79
2023/09/09 03:34:45;;;;;;;7.07;6.47;;;;;;;15.46;87.93;100891.41;5050457;28;20205;-77
2023/09/09 03:37:11;;;;;;;7.63;6.20;;;;;;;15.44;88.15;100891.53;5048670;28;20210;-78
2023/09/09 03:39:39;;;;;;;6.97;6.37;;;;;;;15.42;88.20;100889.94;5050492;28;20217;-78
2023/09/09 03:42:06;;;;;;;6.70;5.97;;;;;;;15.37;88.16;100893.00;5049955;28;20229;-79
2023/09/09 03:44:32;;;;;;;6.47;5.77;;;;;;;15.34;88.58;100887.03;5047454;28;20231;-77
2023/09/09 03:46:59;;;;;;;7.97;6.37;;;;;;;15.29;88.77;100884.69;5052099;28;20214;-79
2023/09/09 03:49:25;;;;;;;6.90;6.20;;;;;;;15.25;88.88;100886.75;5049277;28;20211;-80
2023/09/09 03:51:52;;;;;;;7.80;6.23;;;;;;;15.22;89.02;100886.19;5045666;28;20225;-78
2023/09/09 03:54:18;;;;;;;6.50;5.90;;;;;;;15.21;89.53;100892.50;5046349;28;20605;-80
2023/09/09 03:56:46;;;;;;;9.43;6.27;;;;;;;15.20;89.54;100886.28;5045288;28;20206;-79
2023/09/09 03:59:13;;;;;;;7.17;5.93;;;;;;;15.18;89.64;100892.75;5048929;28;20214;-78
2023/09/09 04:01:39;;;;;;;9.37;7.23;;;;;;;15.16;89.75;100895.56;5042076;28;20198;-79
2023/09/09 04:04:06;;;;;;;7.23;6.43;;;;;;;15.15;89.66;100882.25;5043982;28;20203;-80
2023/09/09 04:06:32;;;;;;;6.73;6.13;;;;;;;15.13;89.91;100886.88;5045753;28;21606;-80
2023/09/09 04:08:59;;;;;;;7.50;6.80;;;;;;;15.11;89.76;100892.38;5049318;28;20207;-78
2023/09/09 04:11:25;;;;;;;8.07;7.37;;;;;;;15.11;90.03;100889.69;5049678;28;20216;-79
2023/09/09 04:13:53;;;;;;;8.10;7.30;;;;;;;15.11;90.86;100886.16;5048894;28;20225;-77
2023/09/09 04:16:20;;;;;;;8.00;7.27;;;;;;;15.11;91.06;100897.72;5045670;28;20210;-79
2023/09/09 04:18:46;;;;;;;8.73;7.93;;;;;;;15.11;91.09;100889.69;5040517;28;20232;-77
2023/09/09 04:21:13;;;;;;;8.27;7.23;;;;;;;15.10;90.87;100898.69;5044531;28;20219;-78
2023/09/09 04:23:39;;;;;;;9.87;7.40;;;;;;;15.10;91.11;100885.28;5048170;28;20221;-79
2023/09/09 04:26:06;;;;;;;7.30;6.67;;;;;;;15.10;91.19;100892.47;5047299;28;20226;-79
2023/09/09 04:28:32;;;;;;;9.20;7.77;;;;;;;15.12;91.41;100891.41;5049850;28;20296;-78
2023/09/09 04:31:00;;;;;;;8.57;7.57;;;;;;;15.12;91.59;100896.75;5052047;28;20213;-80
2023/09/09 04:33:26;;;;;;;9.67;7.43;;;;;;;15.12;92.44;100899.44;5046829;28;20245;-78
2023/09/09 04:35:53;;;;;;;10.60;8.40;;;;;;;15.13;92.43;100903.84;5050889;28;20209;-80
2023/09/09 04:38:22;;;;;;;10.63;8.97;;;;;;;15.14;93.07;100900.19;5043468;28;20214;-81
2023/09/09 04:40:49;;;;;;;9.27;8.37;;;;;;;15.14;93.86;100902.00;5049506;28;20222;-79
2023/09/09 04:43:16;;;;;;;10.43;9.27;;;;;;;15.14;94.23;100904.69;5047453;28;20232;-80
2023/09/09 04:45:42;;;;;;;11.97;9.13;;;;;;;15.13;94.33;100902.97;5049330;28;20233;-80
2023/09/09 04:48:10;;;;;;;8.73;7.83;;;;;;;15.13;94.57;100905.66;5040527;28;20632;-79
2023/09/09 04:50:37;;;;;;;9.80;8.07;;;;;;;15.09;93.47;100897.00;5048900;28;20723;-79
2023/09/09 04:53:05;;;;;;;8.73;7.83;;;;;;;15.07;92.78;100909.66;5043681;28;20227;-80
2023/09/09 04:55:32;;;;;;;8.57;7.70;;;;;;;15.02;92.11;100903.84;5043494;28;20202;-80
2023/09/09 04:57:58;;;;;;;9.33;7.67;;;;;;;15.00;91.90;100907.59;5044457;28;20262;-80
2023/09/09 05:00:25;;;;;;;8.43;7.63;;;;;;;14.95;91.97;100905.25;5049479;28;20209;-78
2023/09/09 05:02:51;;;;;;;8.97;8.07;;;;;;;14.90;91.50;100902.94;5046690;28;20237;-82
2023/09/09 05:05:19;;;;;;;10.13;8.57;;;;;;;14.87;91.78;100902.31;5039118;28;20229;-79
2023/09/09 05:07:45;;;;;;;9.73;8.83;;;;;;;14.84;92.03;100902.56;5047780;28;22069;-78
2023/09/09 05:10:13;;;;;;;11.27;8.67;;;;;;;14.82;92.05;100901.84;5046344;28;20595;-78
2023/09/09 05:12:40;;;;;;;9.30;8.43;;;;;;;14.80;92.32;100904.63;5046909;28;20221;-80
2023/09/09 05:15:10;;;;;;;10.17;8.97;;;;;;;14.80;92.92;100901.94;5042293;28;20566;-78
2023/09/09 05:17:36;;;;;;;9.43;8.40;;;;;;;14.81;93.51;100905.47;5045956;28;20216;-79
2023/09/09 05:20:03;;;;;;;9.80;8.80;;;;;;;14.82;94.05;100904.50;5050296;28;20228;-81
2023/09/09 05:22:31;;;;;;;10.30;9.30;;;;;;;14.85;94.75;100905.13;5048482;28;20255;-80
2023/09/09 05:24:58;;;;;;;8.77;7.97;;;;;;;14.87;94.75;100907.66;5039248;28;20236;-78
2023/09/09 05:27:24;;;;;;;9.33;8.43;;;;;;;14.86;94.74;100896.13;5051159;28;20207;-80
2023/09/09 05:29:51;;;;;;;12.40;8.90;;;;;;;14.87;94.74;100908.53;5049745;28;20210;-78
2023/09/09 05:32:17;;;;;;;8.83;7.93;;;;;;;14.91;95.01;100903.78;5051785;28;20225;-79
2023/09/09 05:34:44;;;;;;;10.40;8.80;;;;;;;14.96;94.89;100908.81;5047081;28;20210;-80
2023/09/09 05:37:10;;;;;;;9.83;8.93;;;;;;;15.01;95.41;100907.47;5052157;28;20294;-79
2023/09/09 05:39:38;;;;;;;9.50;8.20;;;;;;;15.08;95.69;100914.06;5047317;28;20209;-80
2023/09/09 05:42:06;;;;;;;9.40;8.50;;;;;;;15.13;95.80;100916.38;5050629;28;20222;-77
2023/09/09 05:44:34;;;;;;;9.43;8.33;;;;;;;15.18;95.74;100915.06;5041587;28;20261;-81
2023/09/09 05:47:01;;;;;;;9.13;8.20;;;;;;;15.21;95.71;100913.97;5044329;28;20215;-78
2023/09/09 05:49:27;;;;;;;10.47;8.93;;;;;;;15.26;95.68;100909.94;5043476;28;20206;-79
2023/09/09 05:51:54;;;;;;;11.00;9.67;;;;;;;15.34;95.74;100917.41;5043415;28;20242;-78
2023/09/09 05:54:20;;;;;;;11.27;8.97;;;;;;;15.41;96.07;100918.59;5048706;28;20560;-80
2023/09/09 05:56:48;;;;;;;9.47;8.57;;;;;;;15.49;95.87;100920.69;5050959;28;20672;-79
2023/09/09 05:59:15;;;;;;;9.27;7.70;;;;;;;15.58;96.25;100911.94;5049015;28;20202;-77
2023/09/09 06:01:42;;;;;;;9.33;8.33;;;;;;;15.66;95.67;100914.84;5043859;28;20209;-77
2023/09/09 06:04:07;;;;;;;9.27;8.40;;;;;;;15.73;95.46;100921.47;5044923;28;20207;-78
2023/09/09 06:06:34;;;;;;;11.73;8.60;;;;;;;15.82;95.04;100919.84;5050887;28;20309;-79
2023/09/09 06:09:00;;;;;;;8.40;7.53;;;;;;;15.92;95.07;100912.75;5049517;28;20218;-78
2023/09/09 06:11:27;;;;;;;11.13;8.10;;;;;;;16.03;95.04;100920.78;5045601;28;20235;-81
2023/09/09 06:13:55;;;;;;;10.67;8.13;;;;;;;16.15;94.79;100919.78;5043859;28;20597;-78
2023/09/09 06:16:21;;;;;;;8.30;7.43;;;;;;;16.26;94.46;100921.59;5046437;28;20543;-77
2023/09/09 06:18:47;;;;;;;11.60;8.10;;;;;;;16.38;93.80;100925.09;5042139;28;20234;-79
2023/09/09 06:21:14;;;;;;;8.93;8.03;;;;;;;16.46;93.39;100923.47;5048161;28;20223;-78
2023/09/09 06:23:40;;;;;;;8.87;7.97;;;;;;;16.57;93.95;100927.94;5048816;28;20225;-80
2023/09/09 06:26:07;;;;;;;8.93;8.10;;;;;;;16.69;94.41;100928.78;5043841;28;20240;-81
2023/09/09 06:28:33;;;;;;;9.17;8.23;;;;;;;16.82;94.63;100933.00;5046025;28;20201;-80
2023/09/09 06:31:01;;;;;;;8.37;7.57;;;;;;;16.95;94.49;100922.03;5050314;28;20583;-80
2023/09/09 06:33:28;;;;;;;10.13;8.60;;;;;;;17.07;93.48;100931.75;5049472;28;20232;-79
2023/09/09 06:35:55;;;;;;;8.60;7.70;;;;;;;17.19;92.49;100925.31;5050637;28;20207;-79
2023/09/09 06:38:22;;;;;;;10.53;8.03;;;;;;;17.33;91.85;100924.13;5045016;28;20264;-79
2023/09/09 06:40:49;;;;;;;8.80;7.20;;;;;;;17.45;90.69;100922.19;5047872;28;20207;-79
2023/09/09 06:43:18;;;;;;;10.47;7.90;;;;;;;17.55;90.00;100929.31;5049136;28;20230;-80
2023/09/09 06:45:45;;;;;;;9.63;7.90;;;;;;;17.63;88.04;100934.88;5044031;28;20655;-78
2023/09/09 06:48:16;;;;;;;8.40;7.60;;;;;;;17.73;87.53;100932.28;5041783;28;20212;-79
2023/09/09 06:50:44;;;;;;;9.27;7.37;;;;;;;17.83;87.39;100935.84;5044796;28;20200;-80
2023/09/09 06:53:11;;;;;;;9.37;8.47;;;;;;;17.94;86.35;100933.03;5045422;28;20228;-79
2023/09/09 06:55:37;;;;;;;8.90;8.00;;;;;;;18.07;86.00;100940.88;5049063;28;20206;-81
2023/09/09 06:58:04;;;;;;;8.37;7.20;;;;;;;18.18;85.80;100937.19;5046154;28;20203;-79
2023/09/09 07:00:30;;;;;;;8.60;7.70;;;;;;;18.34;86.01;100946.44;5043521;28;20247;-80
2023/09/09 07:02:57;;;;;;;9.53;8.67;;;;;;;18.44;84.98;100938.38;5051059;28;20235;-80
2023/09/09 07:05:25;;;;;;;8.60;7.87;;;;;;;18.56;84.31;100941.78;5044813;28;20228;-80
2023/09/09 07:07:52;;;;;;;11.17;8.33;;;;;;;18.67;83.50;100942.53;5040994;28;20748;-81
2023/09/09 07:10:18;;;;;;;10.00;8.67;;;;;;;18.80;83.53;100938.72;5053798;28;20204;-80
2023/09/09 07:12:45;;;;;;;8.60;7.70;;;;;;;18.95;83.42;100935.41;5048227;28;20225;-80
2023/09/09 07:15:11;;;;;;;8.63;7.93;;;;;;;19.10;82.75;100937.66;5050830;28;20644;-79
2023/09/09 07:17:38;;;;;;;9.17;7.60;;;;;;;19.24;82.07;100942.59;5048850;28;20236;-83
2023/09/09 07:20:07;;;;;;;8.90;7.93;;;;;;;19.37;81.62;100935.03;5053357;28;20213;-82
2023/09/09 07:22:36;;;;;;;8.43;7.47;;;;;;;19.55;81.42;100944.09;5049960;28;20228;-79
2023/09/09 07:25:02;;;;;;;9.10;7.97;;;;;;;19.73;80.68;100936.91;5046681;28;20215;-79
2023/09/09 07:27:29;;;;;;;7.80;7.10;;;;;;;19.92;79.91;100933.25;5049348;28;20223;-80
2023/09/09 07:29:55;;;;;;;8.70;7.73;;;;;;;20.13;79.06;100933.00;5046665;28;20664;-81
2023/09/09 07:32:21;;;;;;;10.07;7.83;;;;;;;20.32;77.85;100929.31;5038146;28;20592;-83
2023/09/09 07:34:48;;;;;;;10.47;7.87;;;;;;;20.50;77.35;100938.34;5033573;28;20213;-83
2023/09/09 07:37:14;;;;;;;8.70;7.80;;;;;;;20.66;76.75;100938.47;5052162;28;20209;-82
2023/09/09 07:39:46;;;;;;;8.07;7.03;;;;;;;20.80;76.68;100940.63;5050952;28;20209;-85
2023/09/09 07:42:13;;;;;;;8.15;7.35;;;;;;;20.95;76.88;100932.84;5047387;28;20243;-83
2023/09/09 07:44:40;;;;;;;8.82;7.75;;;;;;;21.10;76.02;100938.53;5050988;28;20204;-84
2023/09/09 07:47:07;;;;;;;7.55;6.85;;;;;;;21.25;75.79;100939.69;5050673;28;20294;-83
2023/09/09 07:49:33;;;;;;;7.70;6.88;;;;;;;21.40;75.39;100943.50;5043883;28;20228;-83
2023/09/09 07:52:00;;;;;;;8.57;7.07;;;;;;;21.57;74.95;100949.00;5049581;28;20701;-83
2023/09/09 07:54:26;;;;;;;7.82;6.88;;;;;;;21.74;73.90;100937.22;5050004;28;20731;-83
2023/09/09 07:56:54;;;;;;;9.05;6.80;;;;;;;21.91;72.93;100943.56;5042648;28;20272;-85
2023/09/09 07:59:21;;;;;;;8.13;7.32;;;;;;;22.08;72.68;100937.22;5043194;28;20279;-84
2023/09/09 08:01:48;;;;;;;7.50;6.70;;;;;;;22.26;72.00;100947.97;5031455;28;20225;-82
2023/09/09 08:04:15;;;;;;;7.93;6.30;;;;;;;22.43;71.65;100936.97;5040477;28;20593;-83
2023/09/09 08:06:41;;;;;;;11.82;6.28;;;;;;;22.60;70.76;100943.28;5045315;28;20234;-85
2023/09/09 08:09:08;;;;;;;7.70;6.05;;;;;;;22.77;70.04;100938.75;5042714;28;20213;-83
2023/09/09 08:11:34;;;;;;;6.53;5.93;;;;;;;22.95;69.83;100944.00;5050532;28;20271;-84
2023/09/09 08:14:02;;;;;;;6.68;5.60;;;;;;;23.11;69.11;100941.31;5050773;28;20197;-84
2023/09/09 08:16:30;;;;;;;7.78;5.93;;;;;;;23.27;68.31;100935.00;5035164;28;20213;-84
2023/09/09 08:18:56;;;;;;;7.10;6.28;;;;;;;23.42;67.47;100939.56;5042973;28;20216;-83
2023/09/09 08:21:23;;;;;;;6.97;6.38;;;;;;;23.60;67.16;100939.38;5042307;28;20581;-83
2023/09/09 08:23:49;;;;;;;6.13;5.45;;;;;;;23.75;67.25;100948.50;5049082;28;20233;-85
2023/09/09 08:26:17;;;;;;;6.07;5.53;;;;;;;23.92;66.90;100941.13;5043993;28;20239;-84
2023/09/09 08:28:43;;;;;;;6.80;5.72;;;;;;;24.08;66.16;100940.19;5038883;28;20217;-84
2023/09/09 08:31:11;;;;;;;6.70;5.78;;;;;;;24.27;65.37;100941.66;5046934;28;20209;-84
2023/09/09 08:33:37;;;;;;;8.02;5.78;;;;;;;24.42;64.29;100937.97;5046500;28;20232;-86
2023/09/09 08:36:04;;;;;;;6.03;5.40;;;;;;;24.56;63.50;100947.25;5043803;28;20209;-85
2023/09/09 08:38:31;;;;;;;5.82;5.22;;;;;;;24.71;63.21;100944.59;5051585;28;20217;-85
2023/09/09 08:41:05;;;;;;;6.05;5.55;;;;;;;24.86;63.66;100946.34;5041844;28;20209;-83
2023/09/09 08:43:38;;;;;;;5.25;4.85;;;;;;;25.04;62.86;100945.22;5042595;28;20987;-83
2023/09/09 08:46:13;;;;;;;4.72;4.30;;;;;;;25.20;62.56;100942.34;5043779;28;20225;-81
2023/09/09 08:48:42;;;;;;;7.38;5.05;;;;;;;25.38;61.89;100941.97;5044896;28;20201;-84
2023/09/09 08:51:12;;;;;;;5.53;4.85;;;;;;;25.57;60.96;100947.75;5042369;28;20206;-86
2023/09/09 08:53:41;;;;;;;4.88;4.20;;;;;;;25.75;60.02;100949.28;5051571;28;20229;-82
2023/09/09 08:56:07;;;;;;;5.78;5.28;;;;;;;25.93;58.97;100942.41;5051551;28;20202;-83
2023/09/09 08:58:34;;;;;;;4.85;4.45;;;;;;;26.15;58.74;100939.72;5044632;28;20206;-82
2023/09/09 09:01:01;;;;;;;5.95;4.32;;;;;;;26.34;56.94;100951.94;5045567;28;20228;-82
2023/09/09 09:03:30;;;;;;;5.43;4.45;;;;;;;26.51;56.11;100947.97;5048916;28;20279;-82
2023/09/09 09:05:58;;;;;;;5.32;4.35;;;;;;;26.71;55.24;100943.50;5051022;28;20229;-80
2023/09/09 09:08:25;;;;;;;5.45;4.50;;;;;;;26.89;54.74;100946.63;5047928;28;20208;-81
2023/09/09 09:10:51;;;;;;;5.97;4.45;;;;;;;27.07;53.74;100943.47;5053340;28;20209;-82
2023/09/09 09:13:18;;;;;;;4.38;3.95;;;;;;;27.24;52.84;100944.84;5053117;28;20240;-82
2023/09/09 09:15:44;;;;;;;4.50;4.03;;;;;;;27.39;50.49;100941.19;5051861;28;20205;-82
2023/09/09 09:18:11;;;;;;;7.35;4.63;;;;;;;27.55;52.40;100935.41;5053604;28;20202;-82
2023/09/09 09:20:40;;;;;;;5.07;4.10;;;;;;;27.71;49.55;100939.75;5049118;28;20221;-82
2023/09/09 09:23:10;;;;;;;4.13;3.72;;;;;;;27.82;49.49;100934.53;5054090;28;20221;-81
2023/09/09 09:25:38;;;;;;;4.10;3.70;;;;;;;27.93;48.73;100927.66;5052676;28;20205;-82
2023/09/09 09:28:05;;;;;;;6.10;3.88;;;;;;;28.06;49.27;100940.53;5050375;28;20212;-81
2023/09/09 09:30:34;;;;;;;4.68;3.70;;;;;;;28.18;48.08;100927.94;5044661;28;20213;-82
2023/09/09 09:33:00;;;;;;;3.88;3.58;;;;;;;28.23;45.48;100934.53;5052307;28;20225;-81
2023/09/09 09:35:27;;;;;;;5.03;3.47;;;;;;;28.29;44.84;100931.00;5049823;28;20208;-81
2023/09/09 09:37:57;;;;;;;3.72;3.38;;;;;;;28.38;44.70;100933.53;5054257;28;20232;-82
2023/09/09 09:40:23;;;;;;;4.07;3.50;;;;;;;28.46;44.42;100931.44;5048122;28;20651;-81
2023/09/09 09:42:50;;;;;;;4.97;3.67;;;;;;;28.58;43.81;100928.94;5046390;28;20232;-82
2023/09/09 09:45:17;;;;;;;3.50;3.20;;;;;;;28.67;43.37;100933.16;5044966;28;20252;-81
2023/09/09 09:47:44;;;;;;;3.75;3.20;;;;;;;28.74;42.82;100922.22;5052584;28;20231;-81
2023/09/09 09:50:18;;;;;;;4.85;3.67;;;;;;;28.82;43.05;100928.38;5043130;28;20263;-81
2023/09/09 09:52:48;;;;;;;3.60;3.30;;;;;;;28.89;42.93;100915.50;5050433;28;20283;-82
2023/09/09 09:55:18;;;;;;;3.25;2.95;;;;;;;28.93;41.91;100924.16;5054422;28;20213;-81
2023/09/09 09:57:46;;;;;;;3.88;3.40;;;;;;;29.01;41.50;100926.69;5050680;28;20221;-82
2023/09/09 10:00:15;;;;;;;3.47;3.15;;;;;;;29.07;41.25;100923.09;5040031;28;20245;-82
2023/09/09 10:02:42;;;;;;;4.82;3.35;;;;;;;29.09;40.97;100933.84;5053944;28;20229;-82
2023/09/09 10:05:13;;;;;;;3.60;3.30;;;;;;;29.15;40.88;100927.53;5037181;28;20614;-82
2023/09/09 10:07:43;;;;;;;5.22;3.42;;;;;;;29.22;40.33;100922.88;5041293;28;20218;-82
2023/09/09 10:10:13;;;;;;;3.65;3.35;;;;;;;29.30;40.52;100923.50;5045494;28;20296;-80
2023/09/09 10:12:48;;;;;;;3.85;3.45;;;;;;;29.38;39.24;100925.16;5046107;28;20233;-81
2023/09/09 10:15:16;;;;;;;4.18;3.78;;;;;;;29.44;39.34;100916.13;5050875;28;20211;-80
2023/09/09 10:17:44;;;;;;;3.67;3.38;;;;;;;29.54;39.14;100921.19;5049533;28;20225;-81
2023/09/09 10:20:12;;;;;;;3.20;2.90;;;;;;;29.63;39.63;100920.72;5042470;28;20237;-80
2023/09/09 10:22:40;;;;;;;3.63;3.20;;;;;;;29.76;39.72;100924.47;5053629;28;20230;-81
2023/09/09 10:25:10;;;;;;;5.57;3.53;;;;;;;29.84;39.29;100927.00;5048549;28;20212;-81
2023/09/09 10:27:38;;;;;;;8.07;3.78;;;;;;;29.92;38.49;100918.50;5052452;28;20565;-81
2023/09/09 10:30:08;;;;;;;4.13;3.72;;;;;;;29.92;38.24;100913.84;5052881;28;20554;-81
2023/09/09 10:32:36;;;;;;;3.53;3.20;;;;;;;29.99;38.35;100911.97;5047397;28;20724;-81
2023/09/09 10:35:04;;;;;;;3.20;2.90;;;;;;;30.08;37.41;100917.22;5038806;28;20204;-81
2023/09/09 10:37:33;;;;;;;4.43;3.17;;;;;;;30.09;37.71;100914.28;5045475;28;20240;-80
2023/09/09 10:40:01;;;;;;;4.10;3.40;;;;;;;30.12;36.87;100910.22;5053748;28;20217;-80
2023/09/09 10:42:28;;;;;;;3.63;3.33;;;;;;;30.13;37.66;100904.50;5040137;28;20226;-81
2023/09/09 10:44:55;;;;;;;4.97;3.67;;;;;;;30.22;38.41;100907.84;5047878;28;20205;-80
2023/09/09 10:47:22;;;;;;;3.92;3.22;;;;;;;30.27;37.06;100906.13;5043159;28;20229;-81
2023/09/09 10:50:03;;;;;;;3.85;3.42;;;;;;;30.24;36.97;100900.25;5049773;28;20300;-81
2023/09/09 10:52:33;;;;;;;3.55;3.25;;;;;;;30.28;37.00;100905.03;5047619;28;20228;-81
2023/09/09 10:55:13;;;;;;;3.88;3.50;;;;;;;30.32;37.32;100903.56;5043650;28;20202;-81
2023/09/09 10:57:39;;;;;;;3.35;3.10;;;;;;;30.42;37.04;100907.75;5044757;28;20204;-81
2023/09/09 11:00:09;;;;;;;3.80;3.08;;;;;;;30.50;36.49;100900.06;5048378;28;20587;-81
2023/09/09 11:02:47;;;;;;;4.07;3.33;;;;;;;30.58;36.66;100897.09;5052890;28;20860;-81
2023/09/09 11:05:16;;;;;;;5.30;3.65;;;;;;;30.64;36.25;100900.84;5047710;28;20224;-81
2023/09/09 11:07:43;;;;;;;3.67;3.38;;;;;;;30.70;35.19;100902.69;5038394;28;20226;-81
2023/09/09 11:10:10;;;;;;;3.58;2.92;;;;;;;30.71;35.27;100902.47;5050551;28;20221;-82
2023/09/09 11:12:37;;;;;;;3.05;2.83;;;;;;;30.73;34.95;100896.75;5046739;28;20226;-80
2023/09/09 11:15:08;;;;;;;3.40;3.10;;;;;;;30.78;34.87;100891.44;5051065;28;20208;-82
2023/09/09 11:17:36;;;;;;;3.90;3.33;;;;;;;30.83;34.21;100893.50;5049093;28;20628;-83
2023/09/09 11:20:08;;;;;;;3.33;3.13;;;;;;;30.84;34.79;100896.03;5047469;28;20224;-83
2023/09/09 11:22:35;;;;;;;3.50;3.13;;;;;;;30.88;34.19;100890.94;5054056;28;20694;-82
2023/09/09 11:25:03;;;;;;;3.47;2.85;;;;;;;30.93;33.61;100891.94;5055211;28;20232;-83